Time,TemperatureF,DewpointF,PressureIn,WindDirection,WindDirectionDegrees,WindSpeedMPH,WindSpeedGustMPH,Humidity,HourlyPrecipIn,Conditions,Clouds,dailyrainin,SoftwareType,DateUTC
2013-02-28 00:02:00,40.0,-99.9,29.55,North,1,7.0,11.0,-999,-99.99,,,-99.99,,2013-02-28 05:02:00,
2013-02-28 00:11:00,40.0,-99.9,29.55,NNW,340,6.0,9.0,-999,-99.99,,,-99.99,,2013-02-28 05:11:00,
2013-02-28 00:22:00,39.0,-99.9,29.54,North,349,8.0,11.0,-999,-99.99,,,-99.99,,2013-02-28 05:22:00,
2013-02-28 00:32:00,39.0,-99.9,29.55,North,357,11.0,13.0,-999,-99.99,,,-99.99,,2013-02-28 05:32:00,
2013-02-28 00:43:00,39.0,-99.9,29.55,North,354,9.0,12.0,-999,-99.99,,,-99.99,,2013-02-28 05:43:00,
2013-02-28 00:52:00,39.0,-99.9,29.56,NNW,341,5.0,9.0,-999,-99.99,,,-99.99,,2013-02-28 05:52:00,
2013-02-28 01:02:00,38.0,-99.9,29.56,NW,323,11.0,14.0,-999,-99.99,,,-99.99,,2013-02-28 06:02:00,
2013-02-28 01:11:00,38.0,-99.9,29.56,NW,317,9.0,13.0,-999,-99.99,,,-99.99,,2013-02-28 06:11:00,
2013-02-28 01:22:00,38.0,-99.9,29.56,NW,326,9.0,15.0,-999,-99.99,,,-99.99,,2013-02-28 06:22:00,
2013-02-28 01:32:00,38.0,-99.9,29.56,NW,317,6.0,13.0,-999,-99.99,,,-99.99,,2013-02-28 06:32:00,
2013-02-28 01:42:00,38.0,-99.9,29.56,North,353,7.0,13.0,-999,-99.99,,,-99.99,,2013-02-28 06:42:00,
2013-02-28 01:52:00,38.0,-99.9,29.56,North,355,8.0,12.0,-999,-99.99,,,-99.99,,2013-02-28 06:52:00,
2013-02-28 02:01:00,38.0,-99.9,29.57,NNW,345,8.0,12.0,-999,-99.99,,,-99.99,,2013-02-28 07:01:00,
2013-02-28 02:11:00,38.0,-99.9,29.57,North,352,6.0,9.0,-999,-99.99,,,-99.99,,2013-02-28 07:11:00,
2013-02-28 02:22:00,38.0,-99.9,29.56,North,357,6.0,9.0,-999,-99.99,,,-99.99,,2013-02-28 07:22:00,
2013-02-28 02:32:00,38.0,-99.9,29.57,North,352,5.0,9.0,-999,-99.99,,,-99.99,,2013-02-28 07:32:00,
2013-02-28 02:42:00,38.0,-99.9,29.57,WNW,301,6.0,9.0,-999,-99.99,,,-99.99,,2013-02-28 07:42:00,
2013-02-28 02:52:00,38.0,-99.9,29.57,North,355,6.0,9.0,-999,-99.99,,,-99.99,,2013-02-28 07:52:00,
2013-02-28 03:01:00,38.0,-99.9,29.56,North,357,9.0,12.0,-999,-99.99,,,-99.99,,2013-02-28 08:01:00,
2013-02-28 03:12:00,38.0,-99.9,29.56,North,349,7.0,9.0,-999,-99.99,,,-99.99,,2013-02-28 08:12:00,
2013-02-28 03:22:00,38.0,-99.9,29.57,North,352,3.0,5.0,-999,-99.99,,,-99.99,,2013-02-28 08:22:00,
2013-02-28 03:32:00,37.0,-99.9,29.57,North,4,6.0,10.0,-999,-99.99,,,-99.99,,2013-02-28 08:32:00,
2013-02-28 03:42:00,37.0,-99.9,29.56,North,2,5.0,8.0,-999,-99.99,,,-99.99,,2013-02-28 08:42:00,
2013-02-28 03:53:00,37.0,-99.9,29.55,North,354,7.0,9.0,-999,-99.99,,,-99.99,,2013-02-28 08:53:00,
2013-02-28 04:04:00,37.0,-99.9,29.55,NNE,25,3.0,10.0,-999,-99.99,,,-99.99,,2013-02-28 09:04:00,
2013-02-28 04:12:00,37.0,-99.9,29.56,North,-999,4.0,6.0,-999,-99.99,,,-99.99,,2013-02-28 09:12:00,
2013-02-28 04:22:00,37.0,-99.9,29.57,NNW,329,5.0,6.0,-999,-99.99,,,-99.99,,2013-02-28 09:22:00,
2013-02-28 04:32:00,37.0,-99.9,29.57,WSW,249,4.0,6.0,-999,-99.99,,,-99.99,,2013-02-28 09:32:00,
2013-02-28 04:42:00,37.0,-99.9,29.58,WSW,248,3.0,5.0,-999,-99.99,,,-99.99,,2013-02-28 09:42:00,
2013-02-28 04:53:00,36.0,-99.9,29.59,SW,233,3.0,4.0,-999,-99.99,,,-99.99,,2013-02-28 09:53:00,
2013-02-28 05:02:00,36.0,-99.9,29.58,SW,222,2.0,3.0,-999,-99.99,,,-99.99,,2013-02-28 10:02:00,
2013-02-28 05:12:00,36.0,-99.9,29.58,West,270,2.0,2.0,-999,-99.99,,,-99.99,,2013-02-28 10:12:00,
2013-02-28 05:22:00,37.0,-99.9,29.59,West,281,4.0,6.0,-999,-99.99,,,-99.99,,2013-02-28 10:22:00,
2013-02-28 05:32:00,37.0,-99.9,29.59,WSW,249,3.0,4.0,-999,-99.99,,,-99.99,,2013-02-28 10:32:00,
2013-02-28 05:42:00,37.0,-99.9,29.60,West,269,5.0,6.0,-999,-99.99,,,-99.99,,2013-02-28 10:42:00,
2013-02-28 05:52:00,36.0,-99.9,29.60,WNW,303,4.0,6.0,-999,-99.99,,,-99.99,,2013-02-28 10:52:00,
2013-02-28 06:02:00,36.0,-99.9,29.60,WNW,287,4.0,5.0,-999,-99.99,,,-99.99,,2013-02-28 11:02:00,
2013-02-28 06:11:00,36.0,-99.9,29.59,NW,317,5.0,6.0,-999,-99.99,,,-99.99,,2013-02-28 11:11:00,
2013-02-28 06:22:00,36.0,-99.9,29.59,WSW,258,2.0,5.0,-999,-99.99,,,-99.99,,2013-02-28 11:22:00,
2013-02-28 06:32:00,36.0,-99.9,29.60,WSW,248,3.0,5.0,-999,-99.99,,,-99.99,,2013-02-28 11:32:00,
2013-02-28 06:42:00,36.0,-99.9,29.59,WSW,255,4.0,6.0,-999,-99.99,,,-99.99,,2013-02-28 11:42:00,
2013-02-28 06:53:00,36.0,-99.9,29.59,WNW,301,4.0,5.0,-999,-99.99,,,-99.99,,2013-02-28 11:53:00,
2013-02-28 07:02:00,36.0,-99.9,29.59,WNW,296,4.0,7.0,-999,-99.99,,,-99.99,,2013-02-28 12:02:00,
2013-02-28 07:12:00,36.0,-99.9,29.59,NW,323,6.0,8.0,-999,-99.99,,,-99.99,,2013-02-28 12:12:00,
2013-02-28 07:22:00,36.0,-99.9,29.59,WNW,282,5.0,7.0,-999,-99.99,,,-99.99,,2013-02-28 12:22:00,
2013-02-28 07:32:00,36.0,-99.9,29.59,West,279,6.0,7.0,-999,-99.99,,,-99.99,,2013-02-28 12:32:00,
2013-02-28 07:42:00,36.0,-99.9,29.60,WNW,284,6.0,8.0,-999,-99.99,,,-99.99,,2013-02-28 12:42:00,
2013-02-28 07:53:00,36.0,-99.9,29.60,West,277,6.0,6.0,-999,-99.99,,,-99.99,,2013-02-28 12:53:00,
2013-02-28 08:02:00,36.0,-99.9,29.61,West,265,7.0,9.0,-999,-99.99,,,-99.99,,2013-02-28 13:02:00,
2013-02-28 08:12:00,36.0,-99.9,29.61,WNW,299,4.0,5.0,-999,-99.99,,,-99.99,,2013-02-28 13:12:00,
2013-02-28 08:22:00,36.0,-99.9,29.62,WSW,257,2.0,4.0,-999,-99.99,,,-99.99,,2013-02-28 13:22:00,
2013-02-28 08:32:00,37.0,-99.9,29.62,West,268,4.0,7.0,-999,-99.99,,,-99.99,,2013-02-28 13:32:00,
2013-02-28 08:42:00,37.0,-99.9,29.62,WSW,250,4.0,6.0,-999,-99.99,,,-99.99,,2013-02-28 13:42:00,
2013-02-28 08:52:00,37.0,-99.9,29.62,WNW,294,6.0,8.0,-999,-99.99,,,-99.99,,2013-02-28 13:52:00,
2013-02-28 09:02:00,37.0,-99.9,29.62,West,270,3.0,5.0,-999,-99.99,,,-99.99,,2013-02-28 14:02:00,
2013-02-28 09:12:00,37.0,-99.9,29.62,NW,315,5.0,6.0,-999,-99.99,,,-99.99,,2013-02-28 14:12:00,
2013-02-28 09:22:00,37.0,-99.9,29.61,North,353,2.0,3.0,-999,-99.99,,,-99.99,,2013-02-28 14:22:00,
2013-02-28 09:32:00,37.0,-99.9,29.61,NNW,341,3.0,4.0,-999,-99.99,,,-99.99,,2013-02-28 14:32:00,
2013-02-28 09:42:00,38.0,-99.9,29.60,NE,37,2.0,3.0,-999,-99.99,,,-99.99,,2013-02-28 14:42:00,
2013-02-28 09:52:00,38.0,-99.9,29.60,NE,49,3.0,3.0,-999,-99.99,,,-99.99,,2013-02-28 14:52:00,
2013-02-28 10:02:00,38.0,-99.9,29.60,ESE,110,2.0,2.0,-999,-99.99,,,-99.99,,2013-02-28 15:02:00,
2013-02-28 10:11:00,38.0,-99.9,29.60,SE,143,1.0,2.0,-999,-99.99,,,-99.99,,2013-02-28 15:11:00,
2013-02-28 10:22:00,38.0,-99.9,29.60,ESE,115,2.0,2.0,-999,-99.99,,,-99.99,,2013-02-28 15:22:00,
2013-02-28 10:32:00,38.0,-99.9,29.60,SE,127,2.0,2.0,-999,-99.99,,,-99.99,,2013-02-28 15:32:00,
2013-02-28 10:42:00,38.0,-99.9,29.60,ESE,104,2.0,2.0,-999,-99.99,,,-99.99,,2013-02-28 15:42:00,
2013-02-28 10:52:00,38.0,-99.9,29.60,East,94,1.0,2.0,-999,-99.99,,,-99.99,,2013-02-28 15:52:00,
2013-02-28 11:02:00,38.0,-99.9,29.59,ENE,69,2.0,3.0,-999,-99.99,,,-99.99,,2013-02-28 16:02:00,
2013-02-28 11:12:00,39.0,-99.9,29.59,ENE,66,2.0,3.0,-999,-99.99,,,-99.99,,2013-02-28 16:12:00,
2013-02-28 11:22:00,39.0,-99.9,29.59,SSE,163,2.0,3.0,-999,-99.99,,,-99.99,,2013-02-28 16:22:00,
2013-02-28 11:32:00,39.0,-99.9,29.59,SE,141,2.0,2.0,-999,-99.99,,,-99.99,,2013-02-28 16:32:00,
2013-02-28 11:43:00,39.0,-99.9,29.59,SSE,154,3.0,3.0,-999,-99.99,,,-99.99,,2013-02-28 16:43:00,
2013-02-28 11:53:00,39.0,-99.9,29.58,SSE,153,2.0,2.0,-999,-99.99,,,-99.99,,2013-02-28 16:53:00,
2013-02-28 12:02:00,39.0,-99.9,29.58,SE,133,2.0,3.0,-999,-99.99,,,-99.99,,2013-02-28 17:02:00,
2013-02-28 12:12:00,40.0,-99.9,29.58,SE,132,2.0,2.0,-999,-99.99,,,-99.99,,2013-02-28 17:12:00,
2013-02-28 12:22:00,40.0,-99.9,29.57,SSE,153,3.0,4.0,-999,-99.99,,,-99.99,,2013-02-28 17:22:00,
2013-02-28 12:33:00,40.0,-99.9,29.57,SSE,155,3.0,4.0,-999,-99.99,,,-99.99,,2013-02-28 17:33:00,
2013-02-28 12:42:00,40.0,-99.9,29.56,SE,144,2.0,3.0,-999,-99.99,,,-99.99,,2013-02-28 17:42:00,
2013-02-28 12:53:00,40.0,-99.9,29.55,SE,125,1.0,2.0,-999,-99.99,,,-99.99,,2013-02-28 17:53:00,
2013-02-28 13:02:00,41.0,-99.9,29.55,SSE,155,1.0,2.0,-999,-99.99,,,-99.99,,2013-02-28 18:02:00,
2013-02-28 13:12:00,41.0,-99.9,29.55,SSE,162,2.0,2.0,-999,-99.99,,,-99.99,,2013-02-28 18:12:00,
2013-02-28 13:22:00,42.0,-99.9,29.54,South,170,2.0,3.0,-999,-99.99,,,-99.99,,2013-02-28 18:22:00,
2013-02-28 13:32:00,42.0,-99.9,29.54,SSE,166,2.0,3.0,-999,-99.99,,,-99.99,,2013-02-28 18:32:00,
2013-02-28 13:43:00,42.0,-99.9,29.54,SE,136,1.0,2.0,-999,-99.99,,,-99.99,,2013-02-28 18:43:00,
2013-02-28 13:53:00,42.0,-99.9,29.53,ENE,65,2.0,2.0,-999,-99.99,,,-99.99,,2013-02-28 18:53:00,
2013-02-28 14:02:00,43.0,-99.9,29.53,ENE,62,3.0,3.0,-999,-99.99,,,-99.99,,2013-02-28 19:02:00,
2013-02-28 14:12:00,43.0,-99.9,29.52,East,84,3.0,4.0,-999,-99.99,,,-99.99,,2013-02-28 19:12:00,
2013-02-28 14:22:00,43.0,-99.9,29.52,SE,141,1.0,2.0,-999,-99.99,,,-99.99,,2013-02-28 19:22:00,
2013-02-28 14:32:00,44.0,-99.9,29.52,NE,51,-999.0,2.0,-999,-99.99,,,-99.99,,2013-02-28 19:32:00,
2013-02-28 14:42:00,45.0,-99.9,29.52,NE,50,2.0,3.0,-999,-99.99,,,-99.99,,2013-02-28 19:42:00,
2013-02-28 14:52:00,44.0,-99.9,29.51,NE,52,2.0,3.0,-999,-99.99,,,-99.99,,2013-02-28 19:52:00,
2013-02-28 15:02:00,45.0,-99.9,29.51,ENE,66,2.0,4.0,-999,-99.99,,,-99.99,,2013-02-28 20:02:00,
2013-02-28 15:12:00,45.0,-99.9,29.51,East,88,2.0,4.0,-999,-99.99,,,-99.99,,2013-02-28 20:12:00,
2013-02-28 15:22:00,45.0,-99.9,29.50,East,82,2.0,3.0,-999,-99.99,,,-99.99,,2013-02-28 20:22:00,
2013-02-28 15:32:00,45.0,-99.9,29.50,NE,38,2.0,3.0,-999,-99.99,,,-99.99,,2013-02-28 20:32:00,
2013-02-28 15:42:00,46.0,-99.9,29.50,ENE,69,3.0,4.0,-999,-99.99,,,-99.99,,2013-02-28 20:42:00,
2013-02-28 15:52:00,45.0,-99.9,29.50,East,80,3.0,4.0,-999,-99.99,,,-99.99,,2013-02-28 20:52:00,
2013-02-28 16:02:00,45.0,-99.9,29.50,SE,140,2.0,3.0,-999,-99.99,,,-99.99,,2013-02-28 21:02:00,
2013-02-28 16:11:00,45.0,-99.9,29.50,SE,138,2.0,3.0,-999,-99.99,,,-99.99,,2013-02-28 21:11:00,
2013-02-28 16:22:00,45.0,-99.9,29.51,ESE,119,3.0,3.0,-999,-99.99,,,-99.99,,2013-02-28 21:22:00,
2013-02-28 16:32:00,45.0,-99.9,29.51,East,88,3.0,4.0,-999,-99.99,,,-99.99,,2013-02-28 21:32:00,
2013-02-28 16:42:00,46.0,-99.9,29.51,ENE,77,4.0,5.0,-999,-99.99,,,-99.99,,2013-02-28 21:42:00,
2013-02-28 16:52:00,46.0,-99.9,29.51,North,358,5.0,8.0,-999,-99.99,,,-99.99,,2013-02-28 21:52:00,
2013-02-28 17:02:00,46.0,-99.9,29.50,NNE,18,3.0,5.0,-999,-99.99,,,-99.99,,2013-02-28 22:02:00,
2013-02-28 17:11:00,46.0,-99.9,29.50,North,9,4.0,5.0,-999,-99.99,,,-99.99,,2013-02-28 22:11:00,
2013-02-28 17:22:00,46.0,-99.9,29.50,North,5,6.0,9.0,-999,-99.99,,,-99.99,,2013-02-28 22:22:00,
2013-02-28 17:32:00,46.0,-99.9,29.50,North,352,3.0,6.0,-999,-99.99,,,-99.99,,2013-02-28 22:32:00,
2013-02-28 17:42:00,46.0,-99.9,29.50,NNE,14,6.0,7.0,-999,-99.99,,,-99.99,,2013-02-28 22:42:00,
2013-02-28 17:52:00,46.0,-99.9,29.50,North,359,4.0,8.0,-999,-99.99,,,-99.99,,2013-02-28 22:52:00,
2013-02-28 18:02:00,45.0,-99.9,29.50,NNE,31,5.0,7.0,-999,-99.99,,,-99.99,,2013-02-28 23:02:00,
2013-02-28 18:12:00,45.0,-99.9,29.50,NNE,28,4.0,6.0,-999,-99.99,,,-99.99,,2013-02-28 23:12:00,
2013-02-28 18:22:00,45.0,-99.9,29.50,NNE,21,6.0,8.0,-999,-99.99,,,-99.99,,2013-02-28 23:22:00,
2013-02-28 18:32:00,45.0,-99.9,29.50,NNE,15,5.0,8.0,-999,-99.99,,,-99.99,,2013-02-28 23:32:00,
2013-02-28 18:42:00,45.0,-99.9,29.50,NNE,27,6.0,9.0,-999,-99.99,,,-99.99,,2013-02-28 23:42:00,
2013-02-28 18:53:00,45.0,-99.9,29.50,NNE,24,6.0,8.0,-999,-99.99,,,-99.99,,2013-02-28 23:53:00,
2013-02-28 19:02:00,45.0,-99.9,29.50,NNE,25,6.0,10.0,-999,-99.99,,,-99.99,,2013-03-01 00:02:00,
2013-02-28 19:11:00,45.0,-99.9,29.50,NNE,16,4.0,6.0,-999,-99.99,,,-99.99,,2013-03-01 00:11:00,
2013-02-28 19:23:00,44.0,-99.9,29.50,North,7,5.0,7.0,-999,-99.99,,,-99.99,,2013-03-01 00:23:00,
2013-02-28 19:32:00,45.0,-99.9,29.51,NNW,338,6.0,9.0,-999,-99.99,,,-99.99,,2013-03-01 00:32:00,
2013-02-28 19:42:00,45.0,-99.9,29.51,NNW,337,5.0,9.0,-999,-99.99,,,-99.99,,2013-03-01 00:42:00,
2013-02-28 19:52:00,44.0,-99.9,29.50,NNW,346,7.0,10.0,-999,-99.99,,,-99.99,,2013-03-01 00:52:00,
2013-02-28 20:01:00,44.0,-99.9,29.50,North,2,6.0,9.0,-999,-99.99,,,-99.99,,2013-03-01 01:01:00,
2013-02-28 20:11:00,44.0,-99.9,29.51,NNE,12,4.0,7.0,-999,-99.99,,,-99.99,,2013-03-01 01:11:00,
2013-02-28 20:22:00,43.0,-99.9,29.51,North,6,5.0,7.0,-999,-99.99,,,-99.99,,2013-03-01 01:22:00,
2013-02-28 20:32:00,43.0,-99.9,29.51,NNE,18,3.0,6.0,-999,-99.99,,,-99.99,,2013-03-01 01:32:00,
2013-02-28 20:42:00,43.0,-99.9,29.50,NNE,16,6.0,7.0,-999,-99.99,,,-99.99,,2013-03-01 01:42:00,
2013-02-28 20:52:00,42.0,-99.9,29.51,NNE,12,6.0,8.0,-999,-99.99,,,-99.99,,2013-03-01 01:52:00,
2013-02-28 21:02:00,43.0,-99.9,29.51,North,2,3.0,6.0,-999,-99.99,,,-99.99,,2013-03-01 02:02:00,
2013-02-28 21:11:00,43.0,-99.9,29.51,NNW,345,3.0,8.0,-999,-99.99,,,-99.99,,2013-03-01 02:11:00,
2013-02-28 21:22:00,42.0,-99.9,29.51,NNW,340,4.0,7.0,-999,-99.99,,,-99.99,,2013-03-01 02:22:00,
2013-02-28 21:32:00,42.0,-99.9,29.51,North,358,5.0,8.0,-999,-99.99,,,-99.99,,2013-03-01 02:32:00,
2013-02-28 21:42:00,42.0,-99.9,29.51,North,350,5.0,8.0,-999,-99.99,,,-99.99,,2013-03-01 02:42:00,
2013-02-28 21:52:00,42.0,-99.9,29.51,North,356,4.0,7.0,-999,-99.99,,,-99.99,,2013-03-01 02:52:00,
2013-02-28 22:02:00,42.0,-99.9,29.51,North,11,6.0,9.0,-999,-99.99,,,-99.99,,2013-03-01 03:02:00,
2013-02-28 22:12:00,41.0,-99.9,29.50,North,6,7.0,11.0,-999,-99.99,,,-99.99,,2013-03-01 03:12:00,
2013-02-28 22:22:00,41.0,-99.9,29.50,North,-999,8.0,11.0,-999,-99.99,,,-99.99,,2013-03-01 03:22:00,
2013-02-28 22:32:00,41.0,-99.9,29.50,North,6,5.0,9.0,-999,-99.99,,,-99.99,,2013-03-01 03:32:00,
2013-02-28 22:42:00,41.0,-99.9,29.50,North,6,6.0,10.0,-999,-99.99,,,-99.99,,2013-03-01 03:42:00,
2013-02-28 22:52:00,41.0,-99.9,29.50,North,4,5.0,8.0,-999,-99.99,,,-99.99,,2013-03-01 03:52:00,
2013-02-28 23:02:00,41.0,-99.9,29.49,NNW,343,6.0,9.0,-999,-99.99,,,-99.99,,2013-03-01 04:02:00,
2013-02-28 23:12:00,40.0,-99.9,29.49,NNW,347,6.0,9.0,-999,-99.99,,,-99.99,,2013-03-01 04:12:00,
2013-02-28 23:22:00,40.0,-99.9,29.49,North,352,5.0,8.0,-999,-99.99,,,-99.99,,2013-03-01 04:22:00,
2013-02-28 23:32:00,40.0,-99.9,29.49,North,350,5.0,7.0,-999,-99.99,,,-99.99,,2013-03-01 04:32:00,
2013-02-28 23:42:00,40.0,-99.9,29.49,NNW,347,9.0,11.0,-999,-99.99,,,-99.99,,2013-03-01 04:42:00,
2013-02-28 23:52:00,39.0,-99.9,29.49,NNW,345,9.0,12.0,-999,-99.99,,,-99.99,,2013-03-01 04:52:00,